Time;durP1;ratioP1;P1;durP2;ratioP2;P2;SDS_P1;SDS_P2;PMS_P1;PMS_P2;Temp;Humidity;BMP_temperature;BMP_pressure;BME280_temperature;BME280_humidity;BME280_pressure;Samples;Min_cycle;Max_cycle;Signal;HPM_P1;HPM_P2
2022/01/29 00:00:56;;;;;;;;;;;;;;;;;;5092351;28;1190;-66
2022/01/29 00:03:22;;;;;;;;;;;;;;;;;;5094115;28;653;-66
2022/01/29 00:05:48;;;;;;;;;;;;;;;;;;5093201;28;872;-66
2022/01/29 00:08:13;;;;;;;;;;;;;;;;;;5092492;28;860;-66
2022/01/29 00:10:40;;;;;;;;;;;;;;;;;;5093516;28;931;-66
2022/01/29 00:13:05;;;;;;;;;;;;;;;;;;5094030;28;892;-66
2022/01/29 00:15:30;;;;;;;;;;;;;;;;;;5093507;28;1018;-66
2022/01/29 00:17:55;;;;;;;;;;;;;;;;;;5093461;28;1910;-66
2022/01/29 00:20:21;;;;;;;;;;;;;;;;;;5093646;28;892;-66
2022/01/29 00:22:46;;;;;;;;;;;;;;;;;;5093093;28;864;-66
2022/01/29 00:25:11;;;;;;;;;;;;;;;;;;5092038;28;1187;-67
2022/01/29 00:27:37;;;;;;;;;;;;;;;;;;5092046;28;813;-65
2022/01/29 00:30:13;;;;;;;;;;;;;;;;;;5093151;28;884;-65
2022/01/29 00:32:38;;;;;;;;;;;;;;;;;;5093089;28;920;-65
2022/01/29 00:35:04;;;;;;;;;;;;;;;;;;5092775;28;897;-65
2022/01/29 00:37:30;;;;;;;;;;;;;;;;;;5091105;28;1957;-65
2022/01/29 00:39:55;;;;;;;;;;;;;;;;;;5092875;28;919;-65
2022/01/29 00:42:20;;;;;;;;;;;;;;;;;;5092332;28;1267;-65
2022/01/29 00:44:46;;;;;;;;;;;;;;;;;;5091486;28;1527;-66
2022/01/29 00:47:12;;;;;;;;;;;;;;;;;;5093484;28;836;-65
2022/01/29 00:49:37;;;;;;;;;;;;;;;;;;5092587;28;828;-65
2022/01/29 00:52:03;;;;;;;;;;;;;;;;;;5092496;28;823;-65
2022/01/29 00:54:28;;;;;;;;;;;;;;;;;;5091386;28;1377;-66
2022/01/29 00:56:54;;;;;;;;;;;;;;;;;;5092534;28;1973;-65
2022/01/29 00:59:19;;;;;;;;;;;;;;;;;;5091791;28;1457;-65
2022/01/29 01:01:44;;;;;;;;;;;;;;;;;;5092400;28;915;-65
2022/01/29 01:04:09;;;;;;;;;;;;;;;;;;5091915;28;899;-65
2022/01/29 01:06:35;;;;;;;;;;;;;;;;;;5092381;28;899;-65
2022/01/29 01:09:00;;;;;;;;;;;;;;;;;;5090692;28;1246;-65
2022/01/29 01:11:25;;;;;;;;;;;;;;;;;;5092709;28;844;-66
2022/01/29 01:13:51;;;;;;;;;;;;;;;;;;5092616;28;927;-65
2022/01/29 01:16:16;;;;;;;;;;;;;;;;;;5092412;28;1896;-65
2022/01/29 01:18:41;;;;;;;;;;;;;;;;;;5091259;28;829;-65
2022/01/29 01:21:07;;;;;;;;;;;;;;;;;;5090846;28;1189;-65
2022/01/29 01:23:32;;;;;;;;;;;;;;;;;;5092276;28;1100;-65
2022/01/29 01:25:58;;;;;;;;;;;;;;;;;;5092291;28;978;-65
2022/01/29 01:28:24;;;;;;;;;;;;;;;;;;5092982;28;860;-65
2022/01/29 01:30:50;;;;;;;;;;;;;;;;;;5091031;28;859;-65
2022/01/29 01:33:16;;;;;;;;;;;;;;;;;;5092432;28;857;-65
2022/01/29 01:35:46;;;;;;;;;;;;;;;;;;5091134;28;994;-65
2022/01/29 01:40:42;;;;;;;;;;;;;;;;;;5090709;28;722;-65
2022/01/29 01:43:08;;;;;;;;;;;;;;;;;;5092149;28;773;-65
2022/01/29 01:45:33;;;;;;;;;;;;;;;;;;5091621;28;908;-65
2022/01/29 01:47:59;;;;;;;;;;;;;;;;;;5091748;28;888;-65
2022/01/29 01:50:24;;;;;;;;;;;;;;;;;;5091577;28;766;-65
2022/01/29 01:52:50;;;;;;;;;;;;;;;;;;5089971;28;1286;-65
2022/01/29 01:55:15;;;;;;;;;;;;;;;;;;5090334;28;1354;-65
2022/01/29 01:57:41;;;;;;;;;;;;;;;;;;5091123;28;1905;-64
2022/01/29 02:00:07;;;;;;;;;;;;;;;;;;5090502;28;1204;-65
2022/01/29 02:02:32;;;;;;;;;;;;;;;;;;5088947;28;1196;-65
2022/01/29 02:04:57;;;;;;;;;;;;;;;;;;5090473;28;1144;-65
2022/01/29 02:07:23;;;;;;;;;;;;;;;;;;5098962;28;1089;-65
2022/01/29 02:09:48;;;;;;;;;;;;;;;;;;5111063;28;1179;-65
2022/01/29 02:12:14;;;;;;;;;;;;;;;;;;5110508;28;869;-65
2022/01/29 02:14:39;;;;;;;;;;;;;;;;;;5110098;28;1325;-65
2022/01/29 02:17:06;;;;;;;;;;;;;;;;;;5111700;28;1901;-65
2022/01/29 02:19:32;;;;;;;;;;;;;;;;;;5110249;28;1357;-65
2022/01/29 02:21:58;;;;;;;;;;;;;;;;;;5111817;28;875;-65
2022/01/29 02:24:24;;;;;;;;;;;;;;;;;;5110407;28;1212;-65
2022/01/29 02:26:50;;;;;;;;;;;;;;;;;;5110710;28;845;-65
2022/01/29 02:29:15;;;;;;;;;;;;;;;;;;5111535;28;884;-65
2022/01/29 02:31:45;;;;;;;;;;;;;;;;;;5109735;28;1226;-65
2022/01/29 02:34:10;;;;;;;;;;;;;;;;;;5111477;28;994;-65
2022/01/29 02:36:35;;;;;;;;;;;;;;;;;;5111071;28;1901;-65
2022/01/29 02:39:01;;;;;;;;;;;;;;;;;;5111091;28;1212;-66
2022/01/29 02:41:28;;;;;;;;;;;;;;;;;;5110680;28;926;-65
2022/01/29 02:43:53;;;;;;;;;;;;;;;;;;5110419;28;1304;-65
2022/01/29 02:48:49;;;;;;;;;;;;;;;;;;5111558;28;970;-65
2022/01/29 02:51:14;;;;;;;;;;;;;;;;;;5111240;28;961;-65
2022/01/29 02:53:40;;;;;;;;;;;;;;;;;;5110160;28;918;-65
2022/01/29 02:56:05;;;;;;;;;;;;;;;;;;5111219;28;1978;-65
2022/01/29 02:58:31;;;;;;;;;;;;;;;;;;5110563;28;825;-66
2022/01/29 03:00:56;;;;;;;;;;;;;;;;;;5111358;28;855;-65
2022/01/29 03:03:22;;;;;;;;;;;;;;;;;;5110534;28;1545;-66
2022/01/29 03:05:47;;;;;;;;;;;;;;;;;;5111615;28;903;-65
2022/01/29 03:08:12;;;;;;;;;;;;;;;;;;5111644;28;939;-66
2022/01/29 03:10:38;;;;;;;;;;;;;;;;;;5110322;28;1341;-66
2022/01/29 03:13:03;;;;;;;;;;;;;;;;;;5093649;28;1333;-66
2022/01/29 03:15:28;;;;;;;;;;;;;;;;;;5115760;28;966;-65
2022/01/29 03:17:54;;;;;;;;;;;;;;;;;;5115744;28;1965;-66
2022/01/29 03:20:19;;;;;;;;;;;;;;;;;;5115736;28;899;-66
2022/01/29 03:22:44;;;;;;;;;;;;;;;;;;5114182;28;1066;-65
2022/01/29 03:25:09;;;;;;;;;;;;;;;;;;5116014;28;1050;-66
2022/01/29 03:27:35;;;;;;;;;;;;;;;;;;5114140;28;852;-65
2022/01/29 03:30:00;;;;;;;;;;;;;;;;;;5115385;28;983;-66
2022/01/29 03:32:26;;;;;;;;;;;;;;;;;;5113508;28;1194;-66
2022/01/29 03:34:51;;;;;;;;;;;;;;;;;;5113812;28;1289;-66
2022/01/29 03:37:17;;;;;;;;;;;;;;;;;;5114428;28;1906;-66
2022/01/29 03:39:44;;;;;;;;;;;;;;;;;;5114531;28;1175;-66
2022/01/29 03:42:10;;;;;;;;;;;;;;;;;;5114656;28;852;-66
2022/01/29 03:44:36;;;;;;;;;;;;;;;;;;5113323;28;1333;-66
2022/01/29 03:47:01;;;;;;;;;;;;;;;;;;5114597;28;1010;-65
2022/01/29 03:49:27;;;;;;;;;;;;;;;;;;5114525;28;1006;-65
2022/01/29 03:51:52;;;;;;;;;;;;;;;;;;5114903;27;965;-65
2022/01/29 03:54:17;;;;;;;;;;;;;;;;;;5113118;28;1468;-65
2022/01/29 03:56:42;;;;;;;;;;;;;;;;;;5114214;28;1898;-66
2022/01/29 03:59:08;;;;;;;;;;;;;;;;;;5114156;28;990;-66
2022/01/29 04:01:33;;;;;;;;;;;;;;;;;;5114145;28;903;-65
2022/01/29 04:03:58;;;;;;;;;;;;;;;;;;5096082;28;1385;-66
2022/01/29 04:06:24;;;;;;;;;;;;;;;;;;5095558;28;1268;-66
2022/01/29 04:08:49;;;;;;;;;;;;;;;;;;5113933;28;895;-65
2022/01/29 04:11:15;;;;;;;;;;;;;;;;;;5114206;28;820;-66
2022/01/29 04:13:44;;;;;;;;;;;;;;;;;;5095431;28;1670;-66
2022/01/29 04:16:10;;;;;;;;;;;;;;;;;;5114047;28;1894;-66
2022/01/29 04:18:35;;;;;;;;;;;;;;;;;;5113461;28;1062;-66
2022/01/29 04:21:01;;;;;;;;;;;;;;;;;;5114342;28;908;-65
2022/01/29 04:23:27;;;;;;;;;;;;;;;;;;5113884;27;817;-66
2022/01/29 04:25:53;;;;;;;;;;;;;;;;;;5113185;28;840;-65
2022/01/29 04:28:21;;;;;;;;;;;;;;;;;;5112462;28;1301;-65
2022/01/29 04:30:52;;;;;;;;;;;;;;;;;;5113978;28;831;-65
2022/01/29 04:35:43;;;;;;;;;;;;;;;;;;5113551;28;880;-65
2022/01/29 04:38:08;;;;;;;;;;;;;;;;;;5113499;27;1901;-65
2022/01/29 04:40:35;;;;;;;;;;;;;;;;;;5112213;28;1304;-65
2022/01/29 04:43:00;;;;;;;;;;;;;;;;;;5112864;28;872;-65
2022/01/29 04:45:25;;;;;;;;;;;;;;;;;;5114249;28;950;-65
2022/01/29 04:47:51;;;;;;;;;;;;;;;;;;5112635;28;1147;-65
2022/01/29 04:50:16;;;;;;;;;;;;;;;;;;5113972;28;963;-65
2022/01/29 04:52:41;;;;;;;;;;;;;;;;;;5113994;28;983;-65
2022/01/29 04:55:07;;;;;;;;;;;;;;;;;;5112829;28;1294;-65
2022/01/29 04:57:33;;;;;;;;;;;;;;;;;;5113269;28;1913;-65
2022/01/29 04:59:59;;;;;;;;;;;;;;;;;;5112269;28;926;-65
2022/01/29 05:02:24;;;;;;;;;;;;;;;;;;5113444;28;836;-65
2022/01/29 05:04:49;;;;;;;;;;;;;;;;;;5113598;28;1034;-65
2022/01/29 05:07:15;;;;;;;;;;;;;;;;;;5113431;28;1049;-65
2022/01/29 05:09:40;;;;;;;;;;;;;;;;;;5094909;28;1517;-65
2022/01/29 05:12:06;;;;;;;;;;;;;;;;;;5112266;28;932;-65
2022/01/29 05:28:02;;;;;;;;;;;;;;;;;;5113152;28;647;-65
2022/01/29 05:30:27;;;;;;;;;;;;;;;;;;5110881;28;1238;-65
2022/01/29 05:32:52;;;;;;;;;;;;;;;;;;5112288;28;1065;-65
2022/01/29 05:35:18;;;;;;;;;;;;;;;;;;5111008;28;995;-65
2022/01/29 05:37:43;;;;;;;;;;;;;;;;;;5110575;28;1983;-65
2022/01/29 05:40:08;;;;;;;;;;;;;;;;;;5112680;28;1201;-65
2022/01/29 05:42:34;;;;;;;;;;;;;;;;;;5112075;28;903;-65
2022/01/29 05:44:59;;;;;;;;;;;;;;;;;;5111181;28;805;-65
2022/01/29 05:47:24;;;;;;;;;;;;;;;;;;5112122;28;884;-65
2022/01/29 05:49:49;;;;;;;;;;;;;;;;;;5112287;28;836;-65
2022/01/29 05:52:15;;;;;;;;;;;;;;;;;;5111792;28;979;-65
2022/01/29 05:54:40;;;;;;;;;;;;;;;;;;5110423;28;1272;-65
2022/01/29 05:57:05;;;;;;;;;;;;;;;;;;5110785;28;1926;-65
2022/01/29 05:59:34;;;;;;;;;;;;;;;;;;5111511;28;908;-64
2022/01/29 06:02:00;;;;;;;;;;;;;;;;;;5110653;28;1115;-64
2022/01/29 06:04:25;;;;;;;;;;;;;;;;;;5111692;28;966;-64
2022/01/29 06:06:50;;;;;;;;;;;;;;;;;;5111729;28;994;-64
2022/01/29 06:09:16;;;;;;;;;;;;;;;;;;5110750;28;1171;-64
2022/01/29 06:11:41;;;;;;;;;;;;;;;;;;5105206;28;1278;-64
2022/01/29 06:14:06;;;;;;;;;;;;;;;;;;5090480;28;1269;-64
2022/01/29 06:16:31;;;;;;;;;;;;;;;;;;5090112;28;1972;-64
2022/01/29 06:18:57;;;;;;;;;;;;;;;;;;5091285;28;1140;-64
2022/01/29 06:21:23;;;;;;;;;;;;;;;;;;5089363;28;1593;-64
2022/01/29 06:23:48;;;;;;;;;;;;;;;;;;5071634;28;1298;-64
2022/01/29 06:26:13;;;;;;;;;;;;;;;;;;5090381;28;1223;-64
2022/01/29 06:28:39;;;;;;;;;;;;;;;;;;5090741;28;843;-64
2022/01/29 06:31:05;;;;;;;;;;;;;;;;;;5091310;28;899;-64
2022/01/29 06:33:30;;;;;;;;;;;;;;;;;;5091224;28;891;-64
2022/01/29 06:35:56;;;;;;;;;;;;;;;;;;5091555;28;889;-64
2022/01/29 06:38:21;;;;;;;;;;;;;;;;;;5091489;28;1956;-64
2022/01/29 06:40:50;;;;;;;;;;;;;;;;;;5091172;28;887;-64
2022/01/29 06:43:15;;;;;;;;;;;;;;;;;;5091477;28;896;-64
2022/01/29 06:45:41;;;;;;;;;;;;;;;;;;5090988;28;849;-64
2022/01/29 06:48:07;;;;;;;;;;;;;;;;;;5091054;28;935;-64
2022/01/29 06:50:33;;;;;;;;;;;;;;;;;;5089094;28;1222;-64
2022/01/29 06:52:58;;;;;;;;;;;;;;;;;;5090452;28;1191;-64
2022/01/29 06:55:24;;;;;;;;;;;;;;;;;;5090930;28;1337;-64
2022/01/29 06:57:49;;;;;;;;;;;;;;;;;;5091201;28;1969;-64
2022/01/29 07:00:15;;;;;;;;;;;;;;;;;;5090503;28;1181;-64
2022/01/29 07:02:40;;;;;;;;;;;;;;;;;;5091259;28;883;-64
2022/01/29 07:05:06;;;;;;;;;;;;;;;;;;5091317;28;967;-64
2022/01/29 07:07:32;;;;;;;;;;;;;;;;;;5091059;28;930;-64
2022/01/29 07:09:57;;;;;;;;;;;;;;;;;;5089845;28;915;-64
2022/01/29 07:12:23;;;;;;;;;;;;;;;;;;5091297;28;821;-64
2022/01/29 07:14:49;;;;;;;;;;;;;;;;;;5089378;28;1258;-65
2022/01/29 07:17:17;;;;;;;;;;;;;;;;;;5089683;28;1882;-65
2022/01/29 07:19:43;;;;;;;;;;;;;;;;;;5090633;28;852;-64
2022/01/29 07:22:08;;;;;;;;;;;;;;;;;;5089835;28;1305;-65
2022/01/29 07:24:34;;;;;;;;;;;;;;;;;;5090389;28;793;-65
2022/01/29 07:27:00;;;;;;;;;;;;;;;;;;5090436;28;872;-65
2022/01/29 07:29:25;;;;;;;;;;;;;;;;;;5090846;28;845;-65
2022/01/29 07:31:54;;;;;;;;;;;;;;;;;;5090564;28;793;-65
2022/01/29 07:34:19;;;;;;;;;;;;;;;;;;5091221;28;888;-65
2022/01/29 07:36:44;;;;;;;;;;;;;;;;;;5090045;28;1906;-65
2022/01/29 07:39:09;;;;;;;;;;;;;;;;;;5088953;28;1090;-65
2022/01/29 07:41:35;;;;;;;;;;;;;;;;;;5089192;28;903;-64
2022/01/29 07:44:00;;;;;;;;;;;;;;;;;;5090662;28;857;-64
2022/01/29 07:46:25;;;;;;;;;;;;;;;;;;5089328;28;1504;-64
2022/01/29 07:48:51;;;;;;;;;;;;;;;;;;5090367;28;946;-65
2022/01/29 07:51:16;;;;;;;;;;;;;;;;;;5090361;28;853;-65
2022/01/29 07:53:42;;;;;;;;;;;;;;;;;;5087995;28;1187;-64
2022/01/29 07:56:07;;;;;;;;;;;;;;;;;;5090317;28;1901;-64
2022/01/29 07:58:32;;;;;;;;;;;;;;;;;;5090889;28;829;-64
2022/01/29 08:00:57;;;;;;;;;;;;;;;;;;5091990;28;943;-64
2022/01/29 08:03:23;;;;;;;;;;;;;;;;;;5094329;28;895;-64
2022/01/29 08:05:49;;;;;;;;;;;;;;;;;;5092345;28;872;-64
2022/01/29 08:08:14;;;;;;;;;;;;;;;;;;5092732;28;841;-64
2022/01/29 08:10:39;;;;;;;;;;;;;;;;;;5093163;28;845;-64
2022/01/29 08:13:04;;;;;;;;;;;;;;;;;;5092928;28;729;-64
2022/01/29 08:15:30;;;;;;;;;;;;;;;;;;5094541;28;852;-64
2022/01/29 08:17:55;;;;;;;;;;;;;;;;;;5093509;28;1963;-64
2022/01/29 08:20:20;;;;;;;;;;;;;;;;;;5094282;28;919;-64
2022/01/29 08:22:47;;;;;;;;;;;;;;;;;;5093042;28;919;-64
2022/01/29 08:25:12;;;;;;;;;;;;;;;;;;5092533;28;1234;-64
2022/01/29 08:27:38;;;;;;;;;;;;;;;;;;5094134;28;812;-64
2022/01/29 08:30:04;;;;;;;;;;;;;;;;;;5092686;28;1030;-64
2022/01/29 08:32:29;;;;;;;;;;;;;;;;;;5092701;28;1545;-64
2022/01/29 08:34:54;;;;;;;;;;;;;;;;;;5093334;28;958;-67
2022/01/29 08:37:20;;;;;;;;;;;;;;;;;;5092295;28;1909;-66
2022/01/29 08:39:45;;;;;;;;;;;;;;;;;;5091960;28;1076;-66
2022/01/29 08:42:11;;;;;;;;;;;;;;;;;;5093763;28;817;-66
2022/01/29 08:44:36;;;;;;;;;;;;;;;;;;5092484;28;967;-66
2022/01/29 08:47:01;;;;;;;;;;;;;;;;;;5093299;28;1013;-66
2022/01/29 08:49:27;;;;;;;;;;;;;;;;;;5093717;28;864;-66
2022/01/29 08:51:52;;;;;;;;;;;;;;;;;;5092784;28;1057;-66
2022/01/29 08:54:18;;;;;;;;;;;;;;;;;;5093250;28;807;-66
2022/01/29 08:56:43;;;;;;;;;;;;;;;;;;5092351;28;1977;-65
2022/01/29 08:59:09;;;;;;;;;;;;;;;;;;5091344;28;1251;-66
2022/01/29 09:01:34;;;;;;;;;;;;;;;;;;5091355;28;899;-65
2022/01/29 09:04:00;;;;;;;;;;;;;;;;;;5090744;28;1123;-66
2022/01/29 09:06:25;;;;;;;;;;;;;;;;;;5093035;28;831;-65
2022/01/29 09:08:51;;;;;;;;;;;;;;;;;;5092457;28;821;-65
2022/01/29 09:11:17;;;;;;;;;;;;;;;;;;5092748;28;825;-64
2022/01/29 09:13:42;;;;;;;;;;;;;;;;;;5091028;28;895;-64
2022/01/29 09:16:07;;;;;;;;;;;;;;;;;;5092451;28;1968;-64
2022/01/29 09:18:33;;;;;;;;;;;;;;;;;;5092874;28;979;-65
2022/01/29 09:20:58;;;;;;;;;;;;;;;;;;5092086;28;1368;-65
2022/01/29 09:23:23;;;;;;;;;;;;;;;;;;5092651;28;799;-64
2022/01/29 09:25:49;;;;;;;;;;;;;;;;;;5091954;28;825;-65
2022/01/29 09:28:14;;;;;;;;;;;;;;;;;;5092586;28;970;-64
2022/01/29 09:30:40;;;;;;;;;;;;;;;;;;5073903;28;849;-64
2022/01/29 09:33:05;;;;;;;;;;;;;;;;;;5092060;28;1163;-64
2022/01/29 09:35:31;;;;;;;;;;;;;;;;;;5099072;28;1076;-64
2022/01/29 09:37:56;;;;;;;;;;;;;;;;;;5101652;28;1910;-64
2022/01/29 09:40:22;;;;;;;;;;;;;;;;;;5113157;28;951;-64
2022/01/29 09:42:50;;;;;;;;;;;;;;;;;;5112793;28;927;-63
2022/01/29 09:45:16;;;;;;;;;;;;;;;;;;5112610;28;812;-64
2022/01/29 09:47:43;;;;;;;;;;;;;;;;;;5111273;28;1327;-63
2022/01/29 09:50:08;;;;;;;;;;;;;;;;;;5112351;28;924;-63
2022/01/29 09:52:34;;;;;;;;;;;;;;;;;;5112783;27;907;-63
2022/01/29 09:54:59;;;;;;;;;;;;;;;;;;5112140;28;1010;-65
2022/01/29 09:57:25;;;;;;;;;;;;;;;;;;5111371;28;1979;-64
2022/01/29 09:59:50;;;;;;;;;;;;;;;;;;5112350;28;832;-63
2022/01/29 10:02:17;;;;;;;;;;;;;;;;;;5111509;28;1005;-64
2022/01/29 10:04:53;;;;;;;;;;;;;;;;;;5112544;28;835;-63
2022/01/29 10:07:25;;;;;;;;;;;;;;;;;;5111833;28;1245;-65
2022/01/29 10:09:50;;;;;;;;;;;;;;;;;;5111294;28;933;-65
2022/01/29 10:12:16;;;;;;;;;;;;;;;;;;5113461;28;824;-64
2022/01/29 10:14:46;;;;;;;;;;;;;;;;;;5112631;28;895;-64
2022/01/29 10:17:11;;;;;;;;;;;;;;;;;;5112730;28;1882;-64
2022/01/29 10:19:36;;;;;;;;;;;;;;;;;;5112918;28;823;-64
2022/01/29 10:22:02;;;;;;;;;;;;;;;;;;5111082;28;903;-64
2022/01/29 10:24:27;;;;;;;;;;;;;;;;;;5112037;28;820;-63
2022/01/29 10:26:52;;;;;;;;;;;;;;;;;;5112826;28;682;-63
2022/01/29 10:29:23;;;;;;;;;;;;;;;;;;5113166;28;889;-64
2022/01/29 10:31:53;;;;;;;;;;;;;;;;;;5109688;28;1522;-64
2022/01/29 10:34:29;;;;;;;;;;;;;;;;;;5109691;28;1333;-64
2022/01/29 10:37:13;;;;;;;;;;;;;;;;;;5111430;28;1902;-64
2022/01/29 10:39:38;;;;;;;;;;;;;;;;;;5109448;28;1182;-64
2022/01/29 10:42:24;;;;;;;;;;;;;;;;;;5111211;28;915;-64
2022/01/29 10:45:02;;;;;;;;;;;;;;;;;;5111172;28;855;-64
2022/01/29 10:47:28;;;;;;;;;;;;;;;;;;5111352;28;847;-64
2022/01/29 10:49:55;;;;;;;;;;;;;;;;;;5110901;28;935;-64
2022/01/29 10:52:28;;;;;;;;;;;;;;;;;;5110022;28;1369;-64
2022/01/29 10:55:01;;;;;;;;;;;;;;;;;;5109228;28;1186;-64
2022/01/29 10:57:30;;;;;;;;;;;;;;;;;;5092632;28;1969;-64
2022/01/29 10:59:56;;;;;;;;;;;;;;;;;;5109577;28;1363;-64
2022/01/29 11:02:25;;;;;;;;;;;;;;;;;;5108777;28;1357;-64
2022/01/29 11:04:50;;;;;;;;;;;;;;;;;;5108955;28;1230;-64
2022/01/29 11:07:27;;;;;;;;;;;;;;;;;;5110627;28;742;-64
2022/01/29 11:09:53;;;;;;;;;;;;;;;;;;5111121;28;919;-64
2022/01/29 11:12:20;;;;;;;;;;;;;;;;;;5092830;28;1250;-64
2022/01/29 11:14:46;;;;;;;;;;;;;;;;;;5110382;28;816;-64
2022/01/29 11:17:12;;;;;;;;;;;;;;;;;;5110305;28;1954;-64
2022/01/29 11:19:38;;;;;;;;;;;;;;;;;;5110768;28;796;-64
2022/01/29 11:22:05;;;;;;;;;;;;;;;;;;5110057;28;836;-64
2022/01/29 11:24:30;;;;;;;;;;;;;;;;;;5110775;28;970;-65
2022/01/29 11:26:56;;;;;;;;;;;;;;;;;;5110296;28;931;-64
2022/01/29 11:29:22;;;;;;;;;;;;;;;;;;5110893;28;851;-65
2022/01/29 11:31:47;;;;;;;;;;;;;;;;;;5110240;28;939;-64
2022/01/29 11:34:12;;;;;;;;;;;;;;;;;;5110132;28;959;-64
2022/01/29 11:36:46;;;;;;;;;;;;;;;;;;5113501;28;1951;-64
2022/01/29 11:39:19;;;;;;;;;;;;;;;;;;5113865;28;1107;-64
2022/01/29 11:41:44;;;;;;;;;;;;;;;;;;5114497;27;1333;-64
2022/01/29 11:44:25;;;;;;;;;;;;;;;;;;5114380;28;1054;-64
2022/01/29 11:46:50;;;;;;;;;;;;;;;;;;5114508;28;900;-64
2022/01/29 11:49:17;;;;;;;;;;;;;;;;;;5112774;28;915;-65
2022/01/29 11:51:43;;;;;;;;;;;;;;;;;;5112800;28;825;-65
2022/01/29 11:54:11;;;;;;;;;;;;;;;;;;5112128;28;1310;-64
2022/01/29 11:56:38;;;;;;;;;;;;;;;;;;5112814;28;1890;-64
2022/01/29 11:59:27;;;;;;;;;;;;;;;;;;5113877;28;887;-64
2022/01/29 12:01:53;;;;;;;;;;;;;;;;;;5114757;28;813;-64
2022/01/29 12:04:19;;;;;;;;;;;;;;;;;;5112433;28;1201;-64
2022/01/29 12:07:07;;;;;;;;;;;;;;;;;;5112319;28;1230;-65
2022/01/29 12:09:42;;;;;;;;;;;;;;;;;;5112639;28;1190;-65
2022/01/29 12:12:20;;;;;;;;;;;;;;;;;;5113467;28;922;-65
2022/01/29 12:14:56;;;;;;;;;;;;;;;;;;5113572;28;911;-65
2022/01/29 12:17:48;;;;;;;;;;;;;;;;;;5112981;28;1902;-65
2022/01/29 12:20:17;;;;;;;;;;;;;;;;;;5112762;28;1273;-64
2022/01/29 12:22:44;;;;;;;;;;;;;;;;;;5113821;28;938;-64
2022/01/29 12:25:10;;;;;;;;;;;;;;;;;;5113666;27;851;-64
2022/01/29 12:27:40;;;;;;;;;;;;;;;;;;5114236;28;817;-63
2022/01/29 12:30:06;;;;;;;;;;;;;;;;;;5113816;28;749;-64
2022/01/29 12:32:31;;;;;;;;;;;;;;;;;;5111951;28;1289;-64
2022/01/29 12:34:58;;;;;;;;;;;;;;;;;;5112052;28;1310;-64
2022/01/29 12:37:24;;;;;;;;;;;;;;;;;;5113488;28;1913;-64
2022/01/29 12:39:49;;;;;;;;;;;;;;;;;;5113382;28;1285;-64
2022/01/29 12:44:41;;;;;;;;;;;;;;;;;;5113992;28;1037;-65
2022/01/29 12:47:06;;;;;;;;;;;;;;;;;;5112785;28;939;-64
2022/01/29 12:49:41;;;;;;;;;;;;;;;;;;5113557;28;856;-64
2022/01/29 12:52:09;;;;;;;;;;;;;;;;;;5110694;28;1199;-64
2022/01/29 12:54:35;;;;;;;;;;;;;;;;;;5110414;28;1164;-64
2022/01/29 12:57:00;;;;;;;;;;;;;;;;;;5112601;28;1963;-64
2022/01/29 12:59:26;;;;;;;;;;;;;;;;;;5113258;27;891;-64
2022/01/29 13:01:56;;;;;;;;;;;;;;;;;;5111312;28;1002;-64
2022/01/29 13:04:21;;;;;;;;;;;;;;;;;;5111668;28;887;-64
2022/01/29 13:06:47;;;;;;;;;;;;;;;;;;5112898;28;892;-64
2022/01/29 13:09:17;;;;;;;;;;;;;;;;;;5112479;28;809;-65
2022/01/29 13:11:42;;;;;;;;;;;;;;;;;;5112393;28;856;-64
2022/01/29 13:14:11;;;;;;;;;;;;;;;;;;5112472;28;888;-64
2022/01/29 13:16:37;;;;;;;;;;;;;;;;;;5112174;28;1953;-65
2022/01/29 13:19:02;;;;;;;;;;;;;;;;;;5112933;28;868;-64
2022/01/29 13:21:30;;;;;;;;;;;;;;;;;;5112268;28;868;-65
2022/01/29 13:23:56;;;;;;;;;;;;;;;;;;5112980;28;939;-64
2022/01/29 13:26:29;;;;;;;;;;;;;;;;;;5112700;28;769;-64
2022/01/29 13:28:59;;;;;;;;;;;;;;;;;;5111629;28;904;-65
2022/01/29 13:31:24;;;;;;;;;;;;;;;;;;5112128;28;895;-65
2022/01/29 13:33:50;;;;;;;;;;;;;;;;;;5112239;28;863;-64
2022/01/29 13:36:29;;;;;;;;;;;;;;;;;;5112426;28;1026;-64
2022/01/29 13:39:09;;;;;;;;;;;;;;;;;;5111969;28;1179;-64
2022/01/29 13:41:35;;;;;;;;;;;;;;;;;;5112286;28;872;-64
2022/01/29 13:44:10;;;;;;;;;;;;;;;;;;5111931;28;923;-64
2022/01/29 13:46:35;;;;;;;;;;;;;;;;;;5110782;28;884;-64
2022/01/29 13:49:03;;;;;;;;;;;;;;;;;;5112308;28;950;-64
2022/01/29 13:51:29;;;;;;;;;;;;;;;;;;5112372;28;918;-64
2022/01/29 13:53:57;;;;;;;;;;;;;;;;;;5111685;28;788;-64
2022/01/29 13:56:23;;;;;;;;;;;;;;;;;;5112031;28;2001;-64
2022/01/29 13:58:53;;;;;;;;;;;;;;;;;;5109879;28;1240;-64
2022/01/29 14:01:39;;;;;;;;;;;;;;;;;;5111021;28;1388;-64
2022/01/29 14:04:05;;;;;;;;;;;;;;;;;;5100816;28;1282;-64
2022/01/29 14:06:38;;;;;;;;;;;;;;;;;;5112513;28;848;-65
2022/01/29 14:09:06;;;;;;;;;;;;;;;;;;5112278;28;935;-64
2022/01/29 14:11:53;;;;;;;;;;;;;;;;;;5112411;28;982;-64
2022/01/29 14:14:19;;;;;;;;;;;;;;;;;;5113303;28;951;-64
2022/01/29 14:16:44;;;;;;;;;;;;;;;;;;5111515;28;1902;-64
2022/01/29 14:19:17;;;;;;;;;;;;;;;;;;5112092;28;1218;-64
2022/01/29 14:21:43;;;;;;;;;;;;;;;;;;5110371;28;1333;-64
2022/01/29 14:24:08;;;;;;;;;;;;;;;;;;5111702;28;878;-64
2022/01/29 14:26:34;;;;;;;;;;;;;;;;;;5112032;28;793;-64
2022/01/29 14:29:02;;;;;;;;;;;;;;;;;;5111843;28;833;-64
2022/01/29 14:31:27;;;;;;;;;;;;;;;;;;5110957;28;955;-65
2022/01/29 14:33:55;;;;;;;;;;;;;;;;;;5112018;28;891;-64
2022/01/29 14:36:20;;;;;;;;;;;;;;;;;;5110486;28;1989;-64
2022/01/29 14:38:46;;;;;;;;;;;;;;;;;;5111619;28;1210;-64
2022/01/29 14:41:12;;;;;;;;;;;;;;;;;;5111592;28;911;-64
2022/01/29 14:43:38;;;;;;;;;;;;;;;;;;5109878;28;907;-64
2022/01/29 14:46:04;;;;;;;;;;;;;;;;;;5109403;28;1185;-64
2022/01/29 14:48:30;;;;;;;;;;;;;;;;;;5110756;28;943;-65
2022/01/29 14:50:55;;;;;;;;;;;;;;;;;;5110500;28;837;-65
2022/01/29 14:53:22;;;;;;;;;;;;;;;;;;5111362;28;928;-64
2022/01/29 14:55:47;;;;;;;;;;;;;;;;;;5111026;28;851;-65
2022/01/29 14:58:12;;;;;;;;;;;;;;;;;;5110502;28;1970;-65
2022/01/29 15:00:37;;;;;;;;;;;;;;;;;;5111344;28;840;-64
2022/01/29 15:03:03;;;;;;;;;;;;;;;;;;5111199;28;774;-65
2022/01/29 15:05:29;;;;;;;;;;;;;;;;;;5109406;28;1222;-64
2022/01/29 15:07:55;;;;;;;;;;;;;;;;;;5109407;28;1454;-64
2022/01/29 15:10:21;;;;;;;;;;;;;;;;;;5112857;28;1202;-65
2022/01/29 15:12:46;;;;;;;;;;;;;;;;;;5115079;28;798;-64
2022/01/29 15:15:11;;;;;;;;;;;;;;;;;;5115080;28;912;-64
2022/01/29 15:17:36;;;;;;;;;;;;;;;;;;5113520;28;1972;-64
2022/01/29 15:20:03;;;;;;;;;;;;;;;;;;5113468;28;1292;-64
2022/01/29 15:22:28;;;;;;;;;;;;;;;;;;5115265;28;918;-64
2022/01/29 15:24:54;;;;;;;;;;;;;;;;;;5114485;28;813;-64
2022/01/29 15:27:19;;;;;;;;;;;;;;;;;;5114102;28;770;-64
2022/01/29 15:29:44;;;;;;;;;;;;;;;;;;5114813;28;935;-64
2022/01/29 15:32:09;;;;;;;;;;;;;;;;;;5114714;28;908;-64
2022/01/29 15:34:35;;;;;;;;;;;;;;;;;;5114757;28;907;-65
2022/01/29 15:37:00;;;;;;;;;;;;;;;;;;5114292;28;1906;-64
2022/01/29 15:39:25;;;;;;;;;;;;;;;;;;5114747;28;1070;-64
2022/01/29 15:41:52;;;;;;;;;;;;;;;;;;5114558;28;994;-64
2022/01/29 15:44:17;;;;;;;;;;;;;;;;;;5114810;28;859;-64
2022/01/29 15:46:43;;;;;;;;;;;;;;;;;;5126753;22;3610;-71
2022/01/29 15:49:08;;;;;;;;;;;;;;;;;;5051980;28;1632;-71
2022/01/29 15:51:34;;;;;;;;;;;;;;;;;;5054451;28;998;-71
2022/01/29 15:53:59;;;;;;;;;;;;;;;;;;5054815;28;809;-72
2022/01/29 15:56:24;;;;;;;;;;;;;;;;;;5036567;28;1940;-72
2022/01/29 15:58:50;;;;;;;;;;;;;;;;;;5036650;28;1325;-73
2022/01/29 16:01:17;;;;;;;;;;;;;;;;;;5036689;28;766;-73
2022/01/29 16:03:42;;;;;;;;;;;;;;;;;;5036938;28;1295;-73
2022/01/29 16:06:08;;;;;;;;;;;;;;;;;;5036651;28;1200;-72
2022/01/29 16:08:33;;;;;;;;;;;;;;;;;;5036594;28;1313;-73
2022/01/29 16:10:58;;;;;;;;;;;;;;;;;;5035831;28;1306;-73
2022/01/29 16:13:25;;;;;;;;;;;;;;;;;;5053159;28;1163;-73
2022/01/29 16:15:51;;;;;;;;;;;;;;;;;;5054392;28;960;-73
2022/01/29 16:18:17;;;;;;;;;;;;;;;;;;5036383;28;1965;-73
2022/01/29 16:20:43;;;;;;;;;;;;;;;;;;5035418;28;1295;-73
2022/01/29 16:23:09;;;;;;;;;;;;;;;;;;5054391;28;844;-73
2022/01/29 16:25:37;;;;;;;;;;;;;;;;;;5054553;28;968;-73
2022/01/29 16:28:05;;;;;;;;;;;;;;;;;;5035380;28;1152;-73
2022/01/29 16:30:30;;;;;;;;;;;;;;;;;;5035825;28;1196;-73
2022/01/29 16:32:56;;;;;;;;;;;;;;;;;;5053432;28;990;-73
2022/01/29 16:35:21;;;;;;;;;;;;;;;;;;5052164;28;945;-73
2022/01/29 16:37:46;;;;;;;;;;;;;;;;;;5051782;28;1902;-75
2022/01/29 16:40:12;;;;;;;;;;;;;;;;;;5053255;28;909;-73
2022/01/29 16:42:37;;;;;;;;;;;;;;;;;;5035457;28;1299;-73
2022/01/29 16:45:03;;;;;;;;;;;;;;;;;;5051238;28;944;-73
2022/01/29 16:47:29;;;;;;;;;;;;;;;;;;5048129;28;1208;-73
2022/01/29 16:49:54;;;;;;;;;;;;;;;;;;5014675;28;1394;-73
2022/01/29 16:52:19;;;;;;;;;;;;;;;;;;5033266;28;1000;-73
2022/01/29 16:54:45;;;;;;;;;;;;;;;;;;5015187;28;1296;-73
2022/01/29 16:57:11;;;;;;;;;;;;;;;;;;5015194;28;1903;-73
2022/01/29 16:59:36;;;;;;;;;;;;;;;;;;5033551;28;810;-73
2022/01/29 17:02:01;;;;;;;;;;;;;;;;;;5031575;28;902;-72
2022/01/29 17:04:27;;;;;;;;;;;;;;;;;;5033741;28;869;-73
2022/01/29 17:06:52;;;;;;;;;;;;;;;;;;5032340;28;866;-73
2022/01/29 17:09:17;;;;;;;;;;;;;;;;;;5032602;28;901;-73
2022/01/29 17:11:43;;;;;;;;;;;;;;;;;;5031441;28;1284;-73
2022/01/29 17:14:08;;;;;;;;;;;;;;;;;;5031102;28;1150;-72
2022/01/29 17:16:33;;;;;;;;;;;;;;;;;;5031233;28;1918;-72
2022/01/29 17:19:01;;;;;;;;;;;;;;;;;;5014669;28;1216;-73
2022/01/29 17:21:26;;;;;;;;;;;;;;;;;;5030868;28;1185;-73
2022/01/29 17:23:51;;;;;;;;;;;;;;;;;;5030981;28;1322;-73
2022/01/29 17:26:16;;;;;;;;;;;;;;;;;;5032417;28;755;-73
2022/01/29 17:28:42;;;;;;;;;;;;;;;;;;5032397;28;795;-72
2022/01/29 17:31:07;;;;;;;;;;;;;;;;;;5032130;28;818;-73